Munich International Airport EDDM

Flugplatz Daten

Name: Munich International Airport

Ident: EDDM

Lat: 48,35380173

Long: 11,78610039

Platzhöhe: 1487 ft

IataCode: MUC

City: Munich

Homepage: http://www.munich-airport.de/en/consumer/index.jsp

Metar

2022/08/15 18:50
EDDM 151850Z AUTO 28013KT 250V310 9999 SHRA FEW036 FEW///CB 22/13 Q1009 BECMG NSW

Taf

2022/08/15 18:27
TAF EDDM 151700Z 1518/1624 23005KT CAVOK
TEMPO 1518/1522 SHRA BKN050CB PROB30
TEMPO 1519/1521 25020G35KT TSRA
BECMG 1523/1601 VRB03KT
BECMG 1607/1609 25005KT
BECMG 1617/1619 VRB03KT

Webcams

Munich Wiesen Olympiapark
Gewünschte Webcam nicht vorhanden? Dann fügen Sie eine hinzu. Sie wird dann so schnell wie möglich freigeschaltet
Url: Title: